createdAt,value
2023-04-30T00:00:28.266Z,100154.44
2023-04-30T00:02:55.515Z,100154.25
2023-04-30T00:05:22.074Z,100153.31
2023-04-30T00:07:48.775Z,100148.84
2023-04-30T00:10:17.802Z,100153.06
2023-04-30T00:12:44.417Z,100145.09
2023-04-30T00:15:11.727Z,100156.31
2023-04-30T00:17:38.369Z,100154.53
2023-04-30T00:20:05.375Z,100158.63
2023-04-30T00:22:33.392Z,100159.34
2023-04-30T00:24:59.990Z,100152.28
2023-04-30T00:27:29.070Z,100154.78
2023-04-30T00:29:57.996Z,100161.56
2023-04-30T00:32:24.681Z,100163.19
2023-04-30T00:34:51.436Z,100154.38
2023-04-30T00:37:18.008Z,100148.34
2023-04-30T00:39:44.915Z,100152.53
2023-04-30T00:42:11.455Z,100150.56
2023-04-30T00:44:38.048Z,100144.25
2023-04-30T00:47:04.856Z,100142.50
2023-04-30T00:49:33.789Z,100140.81
2023-04-30T00:52:03.376Z,100139.16
2023-04-30T00:54:29.989Z,100141.84
2023-04-30T00:56:56.694Z,100134.09
2023-04-30T00:59:25.810Z,100139.19
2023-04-30T01:01:54.982Z,100137.38
2023-04-30T01:04:21.659Z,100144.16
2023-04-30T01:06:53.247Z,100149.41
2023-04-30T01:09:22.277Z,100144.22
2023-04-30T01:12:09.968Z,100145.97
2023-04-30T01:14:43.888Z,100135.56
2023-04-30T01:17:17.596Z,100142.50
2023-04-30T01:19:44.515Z,100130.44
2023-04-30T01:22:21.650Z,100136.59
2023-04-30T01:25:09.308Z,100137.34
2023-04-30T01:27:50.740Z,100134.75
2023-04-30T01:30:20.271Z,100131.31
2023-04-30T01:32:46.923Z,100129.66
2023-04-30T01:35:13.707Z,100139.31
2023-04-30T01:37:47.462Z,100132.41
2023-04-30T01:40:19.584Z,100133.22
2023-04-30T01:42:49.322Z,100140.19
2023-04-30T01:45:21.584Z,100139.19
2023-04-30T01:47:58.288Z,100141.63
2023-04-30T01:50:25.003Z,100139.94
2023-04-30T01:52:57.574Z,100146.19
2023-04-30T01:55:24.209Z,100147.88
2023-04-30T01:58:00.597Z,100143.53
2023-04-30T02:00:30.916Z,100146.03
2023-04-30T02:03:02.961Z,100150.31
2023-04-30T02:05:30.121Z,100140.81
2023-04-30T02:07:56.740Z,100138.28
2023-04-30T02:10:24.343Z,100138.38
2023-04-30T02:12:54.232Z,100128.94
2023-04-30T02:15:20.996Z,100141.09
2023-04-30T02:17:49.956Z,100134.16
2023-04-30T02:20:16.775Z,100134.91
2023-04-30T02:22:43.789Z,100132.84
2023-04-30T02:25:12.538Z,100137.97
2023-04-30T02:27:39.296Z,100137.06
2023-04-30T02:30:06.492Z,100136.97
2023-04-30T02:32:33.319Z,100139.53
2023-04-30T02:35:00.208Z,100138.53
2023-04-30T02:37:26.877Z,100143.63
2023-04-30T02:39:53.553Z,100146.16
2023-04-30T02:42:23.021Z,100147.78
2023-04-30T02:44:49.670Z,100145.09
2023-04-30T02:47:16.317Z,100151.03
2023-04-30T02:49:45.486Z,100150.97
2023-04-30T02:52:12.240Z,100163.06
2023-04-30T02:54:38.862Z,100154.50
2023-04-30T02:57:08.574Z,100154.63
2023-04-30T02:59:35.144Z,100158.13
2023-04-30T03:02:04.119Z,100159.56
2023-04-30T03:04:30.736Z,100151.72
2023-04-30T03:06:57.343Z,100156.19
2023-04-30T03:09:23.924Z,100154.50
2023-04-30T03:11:50.513Z,100150.84
2023-04-30T03:14:19.940Z,100153.50
2023-04-30T03:16:49.426Z,100140.53
2023-04-30T03:19:16.117Z,100151.81
2023-04-30T03:21:42.730Z,100147.38
2023-04-30T03:24:09.786Z,100154.31
2023-04-30T03:26:36.491Z,100152.75
2023-04-30T03:29:03.325Z,100148.44
2023-04-30T03:31:29.961Z,100153.59
2023-04-30T03:33:56.599Z,100152.69
2023-04-30T03:36:28.529Z,100163.19
2023-04-30T03:38:55.264Z,100157.09
2023-04-30T03:41:24.645Z,100152.72
2023-04-30T03:43:51.331Z,100146.56
2023-04-30T03:46:18.024Z,100152.75
2023-04-30T03:48:48.222Z,100150.25
2023-04-30T03:51:17.764Z,100140.69
2023-04-30T03:53:46.788Z,100146.78
2023-04-30T03:56:15.848Z,100142.50
2023-04-30T03:58:42.488Z,100145.91
2023-04-30T04:01:11.472Z,100154.59
2023-04-30T04:03:38.368Z,100161.78
2023-04-30T04:06:08.377Z,100166.94
2023-04-30T04:08:35.183Z,100162.53
2023-04-30T04:11:02.237Z,100156.38
2023-04-30T04:13:31.427Z,100166.84
2023-04-30T04:15:58.840Z,100165.06
2023-04-30T04:18:25.762Z,100172.00
2023-04-30T04:20:52.536Z,100171.81
2023-04-30T04:23:20.254Z,100168.25
2023-04-30T04:25:49.617Z,100187.44
2023-04-30T04:28:17.213Z,100189.44
2023-04-30T04:30:44.010Z,100186.09
2023-04-30T04:33:11.934Z,100191.84
2023-04-30T04:35:38.836Z,100192.50
2023-04-30T04:38:05.879Z,100201.00
2023-04-30T04:40:35.513Z,100209.41
2023-04-30T04:43:02.386Z,100215.31
2023-04-30T04:45:29.589Z,100217.69
2023-04-30T04:48:01.482Z,100222.72
2023-04-30T04:50:33.543Z,100227.94
2023-04-30T04:53:00.218Z,100224.47
2023-04-30T04:55:29.364Z,100233.16
2023-04-30T04:57:58.992Z,100225.47
2023-04-30T05:00:34.020Z,100232.44
2023-04-30T05:03:01.036Z,100230.03
2023-04-30T05:05:27.741Z,100230.06
2023-04-30T05:07:56.986Z,100229.34
2023-04-30T05:10:23.612Z,100240.97
2023-04-30T05:12:51.424Z,100244.41
2023-04-30T05:15:20.910Z,100242.59
2023-04-30T05:17:47.523Z,100249.47
2023-04-30T05:20:14.200Z,100242.66
2023-04-30T05:22:40.862Z,100240.22
2023-04-30T05:25:07.716Z,100241.25
2023-04-30T05:27:34.392Z,100246.75
2023-04-30T05:30:03.445Z,100247.03
2023-04-30T05:32:30.272Z,100243.50
2023-04-30T05:34:59.328Z,100245.97
2023-04-30T05:37:25.919Z,100246.25
2023-04-30T05:39:54.180Z,100247.25
2023-04-30T05:42:21.138Z,100248.34
2023-04-30T05:44:51.018Z,100247.56
2023-04-30T05:47:17.801Z,100253.56
2023-04-30T05:49:44.453Z,100256.94
2023-04-30T05:52:15.385Z,100249.19
2023-04-30T05:54:42.123Z,100253.34
2023-04-30T05:57:11.366Z,100263.09
2023-04-30T05:59:37.991Z,100256.00
2023-04-30T06:02:04.726Z,100264.84
2023-04-30T06:04:33.887Z,100263.31
2023-04-30T06:07:00.786Z,100259.31
2023-04-30T06:09:27.423Z,100266.72
2023-04-30T06:11:55.838Z,100260.69
2023-04-30T06:14:25.461Z,100256.38
2023-04-30T06:16:54.268Z,100264.81
2023-04-30T06:19:23.383Z,100253.53
2023-04-30T06:21:55.378Z,100258.94
2023-04-30T06:24:22.063Z,100256.25
2023-04-30T06:26:48.641Z,100259.06
2023-04-30T06:29:15.350Z,100264.47
2023-04-30T06:31:42.036Z,100256.78
2023-04-30T06:34:08.998Z,100258.63
2023-04-30T06:36:38.524Z,100256.09
2023-04-30T06:39:05.387Z,100261.41
2023-04-30T06:41:34.471Z,100256.28
2023-04-30T06:44:06.434Z,100256.31
2023-04-30T06:46:34.719Z,100253.78
2023-04-30T06:49:01.494Z,100239.09
2023-04-30T06:51:28.138Z,100243.50
2023-04-30T06:53:54.705Z,100244.63
2023-04-30T06:56:25.082Z,100243.88
2023-04-30T06:58:51.723Z,100239.69
2023-04-30T07:01:18.751Z,100238.16
2023-04-30T07:03:51.676Z,100244.31
2023-04-30T07:06:18.467Z,100255.72
2023-04-30T07:08:49.798Z,100250.50
2023-04-30T07:11:16.964Z,100256.63
2023-04-30T07:13:46.098Z,100251.53
2023-04-30T07:16:12.824Z,100253.88
2023-04-30T07:18:42.273Z,100254.75
2023-04-30T07:21:11.232Z,100244.50
2023-04-30T07:23:37.820Z,100252.38
2023-04-30T07:26:06.897Z,100251.56
2023-04-30T07:28:33.487Z,100256.78
2023-04-30T07:31:00.822Z,100256.78
2023-04-30T07:33:27.500Z,100261.25
2023-04-30T07:35:56.058Z,100261.38
2023-04-30T07:38:22.729Z,100269.31
2023-04-30T07:40:49.268Z,100262.44
2023-04-30T07:43:15.966Z,100262.28
2023-04-30T07:45:45.200Z,100257.84
2023-04-30T07:48:11.868Z,100255.28
2023-04-30T07:50:39.086Z,100256.34
2023-04-30T07:53:09.904Z,100264.44
2023-04-30T07:55:36.593Z,100268.91
2023-04-30T07:58:03.986Z,100265.53
2023-04-30T08:00:33.143Z,100273.63
2023-04-30T08:03:02.322Z,100274.50
2023-04-30T08:05:29.071Z,100279.78
2023-04-30T08:07:55.937Z,100269.19
2023-04-30T08:10:27.389Z,100273.56
2023-04-30T08:12:56.259Z,100273.69
2023-04-30T08:15:23.007Z,100272.06
2023-04-30T08:17:52.986Z,100270.38
2023-04-30T08:20:23.698Z,100269.44
2023-04-30T08:22:51.205Z,100274.81
2023-04-30T08:25:17.802Z,100273.25
2023-04-30T08:27:44.396Z,100263.00
2023-04-30T08:30:13.482Z,100262.34
2023-04-30T08:32:42.821Z,100265.84
2023-04-30T08:35:11.853Z,100267.66
2023-04-30T08:37:41.329Z,100264.19
2023-04-30T08:40:09.795Z,100264.13
2023-04-30T08:42:37.730Z,100266.06
2023-04-30T08:45:07.036Z,100265.41
2023-04-30T08:47:33.611Z,100269.03
2023-04-30T08:50:00.402Z,100258.53
2023-04-30T08:52:29.344Z,100262.88
2023-04-30T08:54:56.002Z,100269.09
2023-04-30T08:57:25.663Z,100256.03
2023-04-30T08:59:52.386Z,100254.28
2023-04-30T09:02:22.038Z,100253.41
2023-04-30T09:04:49.062Z,100259.53
2023-04-30T09:07:18.793Z,100262.16
2023-04-30T09:09:47.744Z,100253.38
2023-04-30T09:12:19.261Z,100249.03
2023-04-30T09:15:13.633Z,100249.03
2023-04-30T09:17:42.787Z,100248.03
2023-04-30T09:20:10.234Z,100260.22
2023-04-30T09:22:39.692Z,100253.97
2023-04-30T09:25:09.649Z,100255.84
2023-04-30T09:27:44.597Z,100246.09
2023-04-30T09:30:15.640Z,100246.88
2023-04-30T09:32:54.648Z,100241.56
2023-04-30T09:35:29.796Z,100237.81
2023-04-30T09:37:56.516Z,100236.84
2023-04-30T09:40:33.173Z,100229.81
2023-04-30T09:43:02.405Z,100224.97
2023-04-30T09:45:47.509Z,100222.78
2023-04-30T09:48:18.141Z,100226.75
2023-04-30T09:50:52.384Z,100231.91
2023-04-30T09:53:21.767Z,100225.66
2023-04-30T09:55:49.260Z,100226.97
2023-04-30T09:58:19.322Z,100226.03
2023-04-30T10:00:46.486Z,100226.59
2023-04-30T10:03:13.589Z,100223.91
2023-04-30T10:05:47.622Z,100225.97
2023-04-30T10:08:35.693Z,100228.53
2023-04-30T10:11:06.196Z,100231.88
2023-04-30T10:13:41.351Z,100230.31
2023-04-30T10:16:21.270Z,100230.13
2023-04-30T10:18:49.158Z,100227.16
2023-04-30T10:21:16.421Z,100225.75
2023-04-30T10:23:43.847Z,100222.53
2023-04-30T10:26:12.474Z,100220.78
2023-04-30T10:28:40.759Z,100220.63
2023-04-30T10:31:10.782Z,100218.41
2023-04-30T10:33:58.708Z,100228.59
2023-04-30T10:36:42.526Z,100230.41
2023-04-30T10:39:12.830Z,100226.97
2023-04-30T10:41:39.535Z,100215.69
2023-04-30T10:44:07.071Z,100223.03
2023-04-30T10:46:39.388Z,100224.78
2023-04-30T10:49:08.928Z,100222.38
2023-04-30T10:51:45.406Z,100223.00
2023-04-30T10:54:12.361Z,100221.06
2023-04-30T10:56:41.563Z,100219.84
2023-04-30T10:59:12.441Z,100216.09
2023-04-30T11:01:54.914Z,100207.63
2023-04-30T11:04:21.680Z,100200.09
2023-04-30T11:07:10.228Z,100205.53
2023-04-30T11:09:37.653Z,100199.31
2023-04-30T11:12:05.055Z,100213.47
2023-04-30T11:14:35.126Z,100208.03
2023-04-30T11:17:05.085Z,100203.94
2023-04-30T11:19:31.939Z,100205.50
2023-04-30T11:22:04.964Z,100210.19
2023-04-30T11:24:50.989Z,100213.56
2023-04-30T11:27:24.495Z,100217.34
2023-04-30T11:29:54.133Z,100209.22
2023-04-30T11:32:21.340Z,100217.44
2023-04-30T11:34:48.662Z,100212.47
2023-04-30T11:37:23.554Z,100216.16
2023-04-30T11:39:50.152Z,100204.69
2023-04-30T11:42:18.052Z,100208.69
2023-04-30T11:44:45.353Z,100218.44
2023-04-30T11:47:17.394Z,100207.56
2023-04-30T11:49:46.981Z,100217.28
2023-04-30T11:52:13.628Z,100205.09
2023-04-30T11:54:42.596Z,100211.81
2023-04-30T11:57:11.524Z,100208.19
2023-04-30T11:59:42.276Z,100210.22
2023-04-30T12:02:10.006Z,100206.72
2023-04-30T12:04:38.562Z,100209.97
2023-04-30T12:07:07.685Z,100203.19
2023-04-30T12:09:56.378Z,100194.63
2023-04-30T12:12:30.033Z,100201.38
2023-04-30T12:15:01.491Z,100192.78
2023-04-30T12:17:33.903Z,100184.31
2023-04-30T12:20:03.160Z,100194.56
2023-04-30T12:22:29.752Z,100181.53
2023-04-30T12:24:56.963Z,100178.69
2023-04-30T12:27:23.795Z,100180.78
2023-04-30T12:29:51.147Z,100179.50
2023-04-30T12:32:19.405Z,100178.53
2023-04-30T12:34:46.756Z,100172.44
2023-04-30T12:37:16.648Z,100170.84
2023-04-30T12:39:43.435Z,100163.97
2023-04-30T12:42:10.348Z,100168.94
2023-04-30T12:44:44.600Z,100160.06
2023-04-30T12:47:11.289Z,100158.72
2023-04-30T12:49:37.902Z,100170.91
2023-04-30T12:52:09.580Z,100167.50
2023-04-30T12:54:36.884Z,100166.13
2023-04-30T12:57:07.490Z,100165.59
2023-04-30T12:59:35.027Z,100163.06
2023-04-30T13:02:08.712Z,100160.34
2023-04-30T13:04:36.186Z,100153.63
2023-04-30T13:07:05.856Z,100144.41
2023-04-30T13:09:36.022Z,100144.44
2023-04-30T13:12:03.302Z,100144.09
2023-04-30T13:14:31.074Z,100138.31
2023-04-30T13:17:05.073Z,100145.31
2023-04-30T13:19:35.324Z,100144.78
2023-04-30T13:22:02.270Z,100134.91
2023-04-30T13:24:31.379Z,100137.31
2023-04-30T13:27:00.640Z,100134.22
2023-04-30T13:29:27.603Z,100135.88
2023-04-30T13:31:56.687Z,100131.38
2023-04-30T13:34:23.556Z,100128.25
2023-04-30T13:36:50.323Z,100142.28
2023-04-30T13:39:17.333Z,100145.59
2023-04-30T13:41:48.024Z,100149.97
2023-04-30T13:44:14.667Z,100139.69
2023-04-30T13:46:41.726Z,100143.59
2023-04-30T13:49:13.257Z,100146.16
2023-04-30T13:51:40.172Z,100144.56
2023-04-30T13:54:09.257Z,100144.66
2023-04-30T13:56:35.890Z,100145.53
2023-04-30T13:59:04.912Z,100148.31
2023-04-30T14:01:33.052Z,100140.91
2023-04-30T14:03:59.863Z,100137.06
2023-04-30T14:06:26.512Z,100133.63
2023-04-30T14:08:53.563Z,100133.88
2023-04-30T14:11:20.930Z,100134.56
2023-04-30T14:13:50.106Z,100129.22
2023-04-30T14:16:17.206Z,100132.03
2023-04-30T14:18:44.289Z,100139.16
2023-04-30T14:21:13.972Z,100147.50
2023-04-30T14:23:41.296Z,100137.38
2023-04-30T14:26:07.873Z,100142.44
2023-04-30T14:28:34.821Z,100140.78
2023-04-30T14:31:06.430Z,100136.00
2023-04-30T14:33:36.071Z,100144.03
2023-04-30T14:36:02.977Z,100147.63
2023-04-30T14:38:29.609Z,100142.81
2023-04-30T14:40:59.412Z,100149.09
2023-04-30T14:43:31.110Z,100146.50
2023-04-30T14:46:00.120Z,100153.34
2023-04-30T14:48:27.045Z,100159.06
2023-04-30T14:50:56.466Z,100158.56
2023-04-30T14:53:25.272Z,100160.84
2023-04-30T14:55:54.223Z,100182.69
2023-04-30T14:58:21.167Z,100185.19
2023-04-30T15:00:51.174Z,100184.38
2023-04-30T15:03:17.859Z,100186.47
2023-04-30T15:05:44.640Z,100191.41
2023-04-30T15:08:11.707Z,100192.44
2023-04-30T15:10:38.312Z,100204.38
2023-04-30T15:13:07.877Z,100198.72
2023-04-30T15:15:40.557Z,100202.66
2023-04-30T15:18:07.378Z,100210.94
2023-04-30T15:20:34.133Z,100209.56
2023-04-30T15:23:03.943Z,100213.44
2023-04-30T15:25:31.248Z,100212.19
2023-04-30T15:27:58.404Z,100223.09
2023-04-30T15:30:25.017Z,100212.72
2023-04-30T15:32:51.612Z,100225.38
2023-04-30T15:35:18.295Z,100227.38
2023-04-30T15:37:47.187Z,100232.72
2023-04-30T15:40:15.593Z,100234.03
2023-04-30T15:42:42.716Z,100238.75
2023-04-30T15:45:14.309Z,100238.78
2023-04-30T15:47:41.276Z,100245.94
2023-04-30T15:50:08.278Z,100248.63
2023-04-30T15:52:39.920Z,100253.91
2023-04-30T15:55:07.848Z,100251.38
2023-04-30T15:57:34.432Z,100268.09
2023-04-30T16:00:01.272Z,100267.22
2023-04-30T16:02:40.852Z,100259.47
2023-04-30T16:05:07.762Z,100264.88
2023-04-30T16:07:34.472Z,100267.53
2023-04-30T16:10:01.236Z,100267.66
2023-04-30T16:12:28.040Z,100269.44
2023-04-30T16:14:57.106Z,100270.38
2023-04-30T16:17:29.193Z,100271.31
2023-04-30T16:19:58.350Z,100269.66
2023-04-30T16:22:25.250Z,100275.00
2023-04-30T16:24:51.888Z,100274.09
2023-04-30T16:27:18.685Z,100276.78
2023-04-30T16:29:48.171Z,100271.69
2023-04-30T16:32:14.871Z,100274.31
2023-04-30T16:34:41.940Z,100275.22
2023-04-30T16:37:09.132Z,100276.97
2023-04-30T16:39:35.724Z,100276.09
2023-04-30T16:42:04.705Z,100271.69
2023-04-30T16:44:31.315Z,100278.69
2023-04-30T16:47:02.782Z,100280.44
2023-04-30T16:49:29.364Z,100273.41
2023-04-30T16:51:56.008Z,100274.28
2023-04-30T16:54:22.978Z,100269.13
2023-04-30T16:56:49.566Z,100266.50
2023-04-30T16:59:16.117Z,100272.47
2023-04-30T17:01:42.892Z,100269.47
2023-04-30T17:04:12.601Z,100269.09
2023-04-30T17:06:42.816Z,100267.09
2023-04-30T17:09:12.358Z,100280.06
2023-04-30T17:11:38.976Z,100273.91
2023-04-30T17:14:05.641Z,100277.47
2023-04-30T17:16:37.417Z,100272.41
2023-04-30T17:19:04.149Z,100270.00
2023-04-30T17:21:33.198Z,100272.78
2023-04-30T17:24:01.949Z,100277.28
2023-04-30T17:26:28.556Z,100279.09
2023-04-30T17:28:55.080Z,100286.16
2023-04-30T17:31:21.666Z,100282.69
2023-04-30T17:33:48.601Z,100287.09
2023-04-30T17:36:18.030Z,100292.31
2023-04-30T17:38:44.645Z,100291.44
2023-04-30T17:41:13.559Z,100295.81
2023-04-30T17:43:40.304Z,100296.72
2023-04-30T17:46:09.828Z,100298.50
2023-04-30T17:48:38.827Z,100303.75
2023-04-30T17:51:08.016Z,100305.44
2023-04-30T17:53:34.594Z,100308.06
2023-04-30T17:56:01.256Z,100306.28
2023-04-30T17:58:28.210Z,100304.53
2023-04-30T18:00:58.956Z,100314.16
2023-04-30T18:03:28.782Z,100315.00
2023-04-30T18:05:55.912Z,100315.91
2023-04-30T18:08:22.542Z,100316.78
2023-04-30T18:10:49.634Z,100315.88
2023-04-30T18:13:21.519Z,100320.22
2023-04-30T18:15:48.243Z,100322.78
2023-04-30T18:18:15.857Z,100324.44
2023-04-30T18:20:44.877Z,100324.44
2023-04-30T18:23:13.411Z,100327.97
2023-04-30T18:25:43.644Z,100327.03
2023-04-30T18:28:10.314Z,100340.97
2023-04-30T18:30:37.030Z,100345.28
2023-04-30T18:33:04.560Z,100348.78
2023-04-30T18:35:34.204Z,100354.91
2023-04-30T18:38:01.778Z,100355.81
2023-04-30T18:40:28.476Z,100362.81
2023-04-30T18:42:57.513Z,100359.31
2023-04-30T18:45:24.217Z,100369.81
2023-04-30T18:47:51.063Z,100373.22
2023-04-30T18:50:20.676Z,100377.56
2023-04-30T18:52:47.331Z,100385.44
2023-04-30T18:55:18.733Z,100389.78
2023-04-30T18:57:45.448Z,100388.88
2023-04-30T19:00:14.131Z,100384.44
2023-04-30T19:02:43.334Z,100390.56
2023-04-30T19:05:15.724Z,100389.66
2023-04-30T19:07:42.368Z,100381.72
2023-04-30T19:10:09.094Z,100380.66
2023-04-30T19:12:35.828Z,100381.44
2023-04-30T19:15:02.583Z,100380.41
2023-04-30T19:17:29.257Z,100382.19
2023-04-30T19:20:00.148Z,100380.44
2023-04-30T19:22:26.847Z,100382.13
2023-04-30T19:24:53.417Z,100393.41
2023-04-30T19:27:20.215Z,100391.63
2023-04-30T19:29:46.815Z,100384.59
2023-04-30T19:32:15.924Z,100392.25
2023-04-30T19:34:44.899Z,100388.75
2023-04-30T19:37:11.429Z,100385.22
2023-04-30T19:39:40.362Z,100396.56
2023-04-30T19:42:09.822Z,100403.53
2023-04-30T19:44:36.607Z,100400.13
2023-04-30T19:47:04.199Z,100400.19
2023-04-30T19:49:31.179Z,100405.38
2023-04-30T19:51:58.330Z,100405.19
2023-04-30T19:54:25.231Z,100406.06
2023-04-30T19:56:52.948Z,100406.06
2023-04-30T19:59:22.114Z,100400.88
2023-04-30T20:01:48.949Z,100407.91
2023-04-30T20:04:17.884Z,100402.63
2023-04-30T20:06:44.976Z,100412.13
2023-04-30T20:09:11.836Z,100412.13
2023-04-30T20:11:38.627Z,100417.38
2023-04-30T20:14:05.560Z,100413.84
2023-04-30T20:16:35.061Z,100425.09
2023-04-30T20:19:01.782Z,100426.78
2023-04-30T20:21:31.916Z,100426.78
2023-04-30T20:24:00.256Z,100425.00
2023-04-30T20:26:29.294Z,100433.78
2023-04-30T20:28:56.426Z,100433.78
2023-04-30T20:31:23.003Z,100433.75
2023-04-30T20:33:52.307Z,100442.44
2023-04-30T20:36:21.553Z,100451.13
2023-04-30T20:38:48.684Z,100447.56
2023-04-30T20:41:15.341Z,100455.34
2023-04-30T20:43:42.020Z,100450.94
2023-04-30T20:46:08.734Z,100457.78
2023-04-30T20:48:35.997Z,100451.56
2023-04-30T20:51:02.518Z,100457.56
2023-04-30T20:53:29.371Z,100461.84
2023-04-30T20:56:00.132Z,100458.38
2023-04-30T20:58:29.886Z,100461.88
2023-04-30T21:01:04.052Z,100470.56
2023-04-30T21:03:33.264Z,100471.38
2023-04-30T21:06:05.270Z,100484.38
2023-04-30T21:08:31.941Z,100484.28
2023-04-30T21:11:04.488Z,100489.38
2023-04-30T21:13:33.613Z,100490.13
2023-04-30T21:16:00.187Z,100496.22
2023-04-30T21:18:27.707Z,100498.72
2023-04-30T21:20:56.367Z,100494.34
2023-04-30T21:23:23.085Z,100504.41
2023-04-30T21:25:49.724Z,100508.31
2023-04-30T21:28:18.654Z,100515.03
2023-04-30T21:30:45.266Z,100507.22
2023-04-30T21:33:11.904Z,100510.72
2023-04-30T21:35:40.736Z,100510.69
2023-04-30T21:38:12.632Z,100505.09
2023-04-30T21:40:42.587Z,100506.56
2023-04-30T21:43:11.612Z,100523.13
2023-04-30T21:45:38.160Z,100523.28
2023-04-30T21:48:05.523Z,100532.91
2023-04-30T21:50:32.800Z,100533.72
2023-04-30T21:52:59.411Z,100542.72
2023-04-30T21:55:26.823Z,100536.78
2023-04-30T21:57:55.936Z,100542.91
2023-04-30T22:00:22.639Z,100541.22
2023-04-30T22:02:51.654Z,100545.97
2023-04-30T22:05:19.657Z,100551.22
2023-04-30T22:07:48.682Z,100545.97
2023-04-30T22:10:15.653Z,100554.59
2023-04-30T22:12:43.903Z,100550.03
2023-04-30T22:15:13.252Z,100548.34
2023-04-30T22:17:42.451Z,100545.03
2023-04-30T22:20:10.086Z,100545.75
2023-04-30T22:22:37.057Z,100555.47
2023-04-30T22:25:04.592Z,100554.72
2023-04-30T22:27:34.252Z,100554.91
2023-04-30T22:30:00.915Z,100551.59
2023-04-30T22:32:27.803Z,100558.56
2023-04-30T22:34:56.851Z,100559.28
2023-04-30T22:37:26.411Z,100557.53
2023-04-30T22:39:53.176Z,100551.28
2023-04-30T22:42:19.836Z,100555.41
2023-04-30T22:44:48.894Z,100561.41
2023-04-30T22:47:15.751Z,100562.16
2023-04-30T22:49:44.810Z,100558.72
2023-04-30T22:52:11.706Z,100562.97
2023-04-30T22:54:38.273Z,100564.47
2023-04-30T22:57:09.754Z,100566.13
2023-04-30T22:59:39.462Z,100569.63
2023-04-30T23:02:06.111Z,100567.00
2023-04-30T23:04:36.707Z,100568.59
2023-04-30T23:07:03.466Z,100572.06
2023-04-30T23:09:32.957Z,100579.75
2023-04-30T23:12:05.690Z,100570.09
2023-04-30T23:14:32.290Z,100579.53
2023-04-30T23:16:58.976Z,100576.09
2023-04-30T23:19:27.715Z,100575.16
2023-04-30T23:21:54.341Z,100573.31
2023-04-30T23:24:23.213Z,100580.34
2023-04-30T23:26:50.058Z,100582.88
2023-04-30T23:29:17.148Z,100574.00
2023-04-30T23:31:46.343Z,100585.47
2023-04-30T23:34:12.958Z,100583.84
2023-04-30T23:36:40.150Z,100582.88
2023-04-30T23:39:06.732Z,100585.38
2023-04-30T23:41:36.233Z,100577.50
2023-04-30T23:44:02.779Z,100588.78
2023-04-30T23:46:29.539Z,100579.31
2023-04-30T23:48:56.298Z,100583.66
2023-04-30T23:51:22.930Z,100578.44
2023-04-30T23:53:49.819Z,100588.06
2023-04-30T23:56:17.215Z,100578.44
2023-04-30T23:58:46.374Z,100579.16
